Time;durP1;ratioP1;P1;durP2;ratioP2;P2;SDS_P1;SDS_P2;PMS_P1;PMS_P2;Temp;Humidity;BMP_temperature;BMP_pressure;BME280_temperature;BME280_humidity;BME280_pressure;Samples;Min_cycle;Max_cycle;Signal;HPM_P1;HPM_P2
2021/05/18 00:00:47;;;;;;;32.25;12.48;;;10.60;97.00;;;;;;5040633;28;20395;-80
2021/05/18 00:03:15;;;;;;;25.25;12.15;;;10.60;99.90;;;;;;5031562;28;20407;-79
2021/05/18 00:05:43;;;;;;;25.75;11.30;;;10.60;99.90;;;;;;5042190;28;20386;-81
2021/05/18 00:08:11;;;;;;;25.90;13.00;;;10.70;97.20;;;;;;5045951;28;20423;-83
2021/05/18 00:13:40;;;;;;;27.35;11.98;;;10.70;99.60;;;;;;5053561;28;20392;-82
2021/05/18 00:16:07;;;;;;;20.52;11.13;;;10.90;99.90;;;;;;5052908;28;20754;-83
2021/05/18 00:18:34;;;;;;;26.63;13.00;;;10.90;99.90;;;;;;5053313;28;20735;-82
2021/05/18 00:21:00;;;;;;;25.73;14.82;;;10.80;99.90;;;;;;5043543;28;20427;-82
2021/05/18 00:23:26;;;;;;;26.45;13.15;;;10.70;99.90;;;;;;5038031;28;20411;-80
2021/05/18 00:25:52;;;;;;;24.10;13.38;;;10.70;99.90;;;;;;5063751;28;20390;-79
2021/05/18 00:28:20;;;;;;;25.13;13.45;;;10.70;99.90;;;;;;5059680;28;20405;-83
2021/05/18 00:30:48;;;;;;;29.08;14.60;;;10.60;99.90;;;;;;5046121;28;21586;-81
2021/05/18 00:33:20;;;;;;;23.17;15.23;;;10.90;99.90;;;;;;5034812;28;20769;-82
2021/05/18 00:35:47;;;;;;;26.65;15.95;;;10.60;99.90;;;;;;5032895;28;20383;-81
2021/05/18 00:38:14;;;;;;;23.85;13.77;;;10.60;99.90;;;;;;5034514;28;20390;-81
2021/05/18 00:40:40;;;;;;;27.00;15.15;;;10.80;99.90;;;;;;5058440;28;20381;-79
2021/05/18 00:43:06;;;;;;;27.48;14.40;;;10.80;99.90;;;;;;5060068;28;20406;-82
2021/05/18 00:45:41;;;;;;;29.65;16.35;;;10.70;99.90;;;;;;5059857;28;20396;-83
2021/05/18 00:48:09;;;;;;;33.45;15.43;;;10.70;99.90;;;;;;5056326;28;20411;-81
2021/05/18 00:50:37;;;;;;;25.00;15.23;;;10.80;99.90;;;;;;5066825;28;20771;-84
2021/05/18 00:53:04;;;;;;;28.73;15.40;;;10.70;99.90;;;;;;5055086;28;20407;-79
2021/05/18 01:00:44;;;;;;;29.13;16.05;;;10.70;99.90;;;;;;5071244;28;20371;-80
2021/05/18 01:03:10;;;;;;;29.85;17.27;;;11.20;99.90;;;;;;5063343;28;20489;-76
2021/05/18 01:08:20;;;;;;;28.33;15.30;;;10.70;99.90;;;;;;5038236;28;20433;-75
2021/05/18 01:10:46;;;;;;;35.27;17.07;;;10.70;99.90;;;;;;5044241;28;20403;-76
2021/05/18 01:13:11;;;;;;;32.45;17.48;;;10.70;99.90;;;;;;5048915;28;20395;-79
2021/05/18 01:15:40;;;;;;;35.40;20.08;;;10.80;99.90;;;;;;5067543;28;20385;-77
2021/05/18 01:18:06;;;;;;;34.53;20.98;;;11.00;99.00;;;;;;5068162;28;20406;-81
2021/05/18 01:20:38;;;;;;;39.53;22.10;;;11.00;99.00;;;;;;5053424;28;20391;-82
2021/05/18 01:23:03;;;;;;;46.42;24.08;;;11.00;97.90;;;;;;5051944;28;20426;-80
2021/05/18 01:25:29;;;;;;;43.13;24.23;;;11.00;99.70;;;;;;5045262;28;20859;-82
2021/05/18 01:27:54;;;;;;;44.45;26.30;;;10.90;99.90;;;;;;5039244;28;20406;-82
2021/05/18 01:30:20;;;;;;;46.45;27.38;;;10.80;99.90;;;;;;5037760;28;20426;-83
2021/05/18 01:32:46;;;;;;;44.45;26.30;;;10.80;99.90;;;;;;5038151;28;20422;-79
2021/05/18 01:35:13;;;;;;;44.05;26.13;;;10.80;99.90;;;;;;5038904;28;20387;-83
2021/05/18 01:37:41;;;;;;;46.85;27.08;;;10.70;99.90;;;;;;5041898;28;20391;-84
2021/05/18 01:43:05;;;;;;;49.85;27.85;;;10.80;99.90;;;;;;5018909;28;20461;-82
2021/05/18 01:45:32;;;;;;;45.70;28.35;;;10.70;99.90;;;;;;5055155;28;20393;-83
2021/05/18 01:48:01;;;;;;;50.38;31.00;;;11.40;99.90;;;;;;5054128;28;20368;-83
2021/05/18 01:50:28;;;;;;;51.47;29.98;;;10.70;99.90;;;;;;5048959;28;20427;-84
2021/05/18 01:52:54;;;;;;;46.10;30.90;;;10.80;99.90;;;;;;5044279;28;20793;-81
2021/05/18 01:55:35;;;;;;;47.05;30.65;;;10.90;99.90;;;;;;5043616;28;20868;-83
2021/05/18 01:58:01;;;;;;;40.70;27.67;;;10.90;99.90;;;;;;5043834;28;20463;-82
2021/05/18 02:00:30;;;;;;;44.83;27.38;;;10.90;99.90;;;;;;5042114;28;20419;-83
2021/05/18 02:02:56;;;;;;;50.78;29.45;;;10.90;99.90;;;;;;5053830;28;20449;-82
2021/05/18 02:05:28;;;;;;;40.35;27.40;;;10.90;99.90;;;;;;5045628;28;20426;-81
2021/05/18 02:07:56;;;;;;;42.28;26.17;;;10.90;99.90;;;;;;5046014;28;20465;-82
2021/05/18 02:10:22;;;;;;;39.67;26.60;;;10.90;99.90;;;;;;5061640;28;20377;-81
2021/05/18 02:12:49;;;;;;;40.50;26.45;;;10.90;99.90;;;;;;5071109;28;20404;-79
2021/05/18 02:18:33;;;;;;;41.97;27.67;;;11.00;99.90;;;;;;5073504;28;20393;-81
2021/05/18 02:26:28;;;;;;;36.92;24.15;;;11.10;99.90;;;;;;5074402;28;20400;-80
2021/05/18 02:28:54;;;;;;;44.75;25.67;;;11.10;99.90;;;;;;5071964;28;20393;-81
2021/05/18 02:31:21;;;;;;;36.58;23.63;;;11.20;99.90;;;;;;5071026;28;20393;-80
2021/05/18 02:33:51;;;;;;;32.00;20.13;;;11.10;99.90;;;;;;5073280;28;20461;-82
2021/05/18 02:36:17;;;;;;;29.35;19.85;;;11.10;99.90;;;;;;5074067;28;20404;-80
2021/05/18 02:38:43;;;;;;;27.70;17.48;;;11.20;99.90;;;;;;5073766;28;20374;-82
2021/05/18 02:41:09;;;;;;;26.42;18.13;;;11.30;99.90;;;;;;5072663;28;20378;-83
2021/05/18 02:43:44;;;;;;;25.17;16.52;;;11.30;99.90;;;;;;5072620;28;20433;-82
2021/05/18 02:49:12;;;;;;;25.83;17.00;;;11.10;99.90;;;;;;5055009;28;20492;-83
2021/05/18 02:51:40;;;;;;;23.35;15.57;;;11.10;99.90;;;;;;5072784;28;20405;-83
2021/05/18 02:54:07;;;;;;;26.38;15.75;;;11.00;99.90;;;;;;5074477;28;20403;-83
2021/05/18 02:56:49;;;;;;;20.05;13.85;;;11.10;99.90;;;;;;5076131;28;20390;-83
2021/05/18 02:59:19;;;;;;;18.30;13.68;;;11.10;99.90;;;;;;5073811;28;20385;-83
2021/05/18 03:01:49;;;;;;;16.45;13.27;;;11.10;99.90;;;;;;5074589;28;20416;-81
2021/05/18 03:04:17;;;;;;;16.40;12.90;;;11.10;99.90;;;;;;5073616;28;20394;-81
2021/05/18 03:06:43;;;;;;;16.87;11.60;;;11.10;99.90;;;;;;5074295;28;20380;-83
2021/05/18 03:09:11;;;;;;;16.58;12.50;;;11.10;99.90;;;;;;5060260;28;20462;-83
2021/05/18 03:11:38;;;;;;;14.75;10.35;;;11.10;99.90;;;;;;5052954;28;20394;-83
2021/05/18 03:14:05;;;;;;;16.45;10.10;;;11.10;99.90;;;;;;5065379;28;20377;-83
2021/05/18 03:16:31;;;;;;;14.25;9.90;;;11.00;99.90;;;;;;5070049;28;20429;-84
2021/05/18 03:18:57;;;;;;;10.13;6.93;;;11.10;99.90;;;;;;5055979;28;20421;-84
2021/05/18 03:21:23;;;;;;;9.27;6.33;;;11.10;99.90;;;;;;5058247;28;20565;-81
2021/05/18 03:23:49;;;;;;;7.00;5.00;;;11.10;97.00;;;;;;5057765;28;20431;-83
2021/05/18 03:26:14;;;;;;;4.43;3.20;;;11.00;97.70;;;;;;5059177;28;20373;-83
2021/05/18 03:28:40;;;;;;;2.80;2.60;;;10.90;92.50;;;;;;5062710;28;20398;-84
2021/05/18 03:36:36;;;;;;;7.55;3.35;;;10.80;93.10;;;;;;5063103;28;20388;-85
2021/05/18 03:39:02;;;;;;;8.88;5.40;;;10.70;97.30;;;;;;5070439;28;20393;-81
2021/05/18 03:41:31;;;;;;;9.02;5.47;;;10.70;99.90;;;;;;5072958;28;20394;-84
2021/05/18 04:03:31;;;;;;;16.92;10.80;;;10.70;99.90;;;;;;5065699;28;20409;-85
2021/05/18 04:11:50;;;;;;;20.27;11.80;;;10.70;99.90;;;;;;5062987;28;20431;-83
2021/05/18 04:16:55;;;;;;;18.48;12.30;;;10.90;99.90;;;;;;5051533;28;20409;-86
2021/05/18 04:19:28;;;;;;;20.48;12.70;;;10.90;99.90;;;;;;5056143;28;20406;-86
2021/05/18 04:49:17;;;;;;;21.40;13.60;;;11.30;99.90;;;;;;5048227;28;20402;-86
2021/05/18 04:59:16;;;;;;;25.55;13.00;;;11.60;98.60;;;;;;5057990;28;20429;-83
2021/05/18 05:02:05;;;;;;;22.27;13.57;;;11.60;98.20;;;;;;5057853;28;20414;-84
2021/05/18 05:07:15;;;;;;;33.50;14.40;;;11.50;99.40;;;;;;5048789;28;20475;-86
2021/05/18 05:09:44;;;;;;;27.43;12.83;;;11.60;99.10;;;;;;5065007;28;20385;-85
2021/05/18 05:14:51;;;;;;;27.67;14.38;;;11.80;94.90;;;;;;5045264;28;20530;-75
2021/05/18 05:17:17;;;;;;;30.23;13.40;;;11.90;93.40;;;;;;5040123;28;20423;-83
2021/05/18 05:19:43;;;;;;;31.85;14.32;;;11.90;93.40;;;;;;5039415;28;20383;-81
2021/05/18 05:22:09;;;;;;;31.48;13.13;;;12.00;91.40;;;;;;5040547;28;20407;-83
2021/05/18 05:24:34;;;;;;;26.38;13.18;;;12.00;89.70;;;;;;5039908;28;20386;-82
2021/05/18 05:27:00;;;;;;;32.30;13.80;;;11.90;92.20;;;;;;5041038;28;20403;-83
2021/05/18 05:29:26;;;;;;;24.35;13.60;;;12.00;93.60;;;;;;5039129;28;20759;-83
2021/05/18 05:31:54;;;;;;;24.92;13.85;;;12.00;94.50;;;;;;5046863;28;20384;-80
2021/05/18 05:34:19;;;;;;;29.67;14.10;;;12.00;93.20;;;;;;5048036;28;20383;-82
2021/05/18 05:36:46;;;;;;;25.60;14.40;;;12.10;89.30;;;;;;5048974;28;20410;-80
2021/05/18 05:39:21;;;;;;;27.38;13.60;;;12.10;90.40;;;;;;5048341;28;20383;-78
2021/05/18 05:41:47;;;;;;;36.58;14.38;;;12.20;89.70;;;;;;5045370;28;20472;-80
2021/05/18 05:44:12;;;;;;;25.57;13.30;;;12.30;87.40;;;;;;5036425;28;20969;-81
2021/05/18 05:46:38;;;;;;;29.40;14.30;;;12.40;83.90;;;;;;5038020;28;20417;-82
2021/05/18 05:49:04;;;;;;;32.70;15.00;;;12.30;88.50;;;;;;5037432;28;20375;-82
2021/05/18 05:51:30;;;;;;;21.92;13.70;;;12.20;89.90;;;;;;5039615;28;20394;-82
2021/05/18 05:53:59;;;;;;;31.00;15.20;;;12.30;86.20;;;;;;5039613;28;20872;-82
2021/05/18 05:56:25;;;;;;;28.05;14.02;;;12.30;89.40;;;;;;5039960;28;20457;-83
2021/05/18 05:58:51;;;;;;;32.55;13.52;;;12.40;84.80;;;;;;5040232;28;20894;-83
2021/05/18 06:01:17;;;;;;;33.00;13.70;;;12.30;86.80;;;;;;5037718;28;20417;-82
2021/05/18 06:03:43;;;;;;;30.35;14.10;;;12.40;86.50;;;;;;5039168;28;20578;-84
2021/05/18 06:06:09;;;;;;;24.08;14.20;;;12.60;83.70;;;;;;5037540;28;20379;-82
2021/05/18 06:08:42;;;;;;;24.53;13.40;;;12.60;84.60;;;;;;5036747;28;20441;-84
2021/05/18 06:11:16;;;;;;;29.45;14.13;;;12.70;79.30;;;;;;5037638;28;20912;-84
2021/05/18 06:43:09;;;;;;;32.00;15.95;;;13.80;67.70;;;;;;5047147;28;20416;-81
2021/05/18 06:45:53;;;;;;;30.25;16.95;;;13.80;65.20;;;;;;5039191;28;20391;-82
2021/05/18 06:48:19;;;;;;;30.80;17.92;;;13.70;65.90;;;;;;5037354;28;20375;-82
2021/05/18 06:50:45;;;;;;;33.97;18.60;;;13.70;66.70;;;;;;5035254;28;20883;-79
2021/05/18 06:53:11;;;;;;;31.35;18.85;;;13.80;68.10;;;;;;5035063;28;20379;-81
2021/05/18 06:55:38;;;;;;;29.50;18.20;;;13.90;67.20;;;;;;5037232;28;20805;-84
2021/05/18 06:58:06;;;;;;;28.77;18.25;;;14.10;62.80;;;;;;5041428;28;20759;-84
2021/05/18 07:00:37;;;;;;;35.73;20.00;;;14.10;59.70;;;;;;5040690;28;20752;-83
2021/05/18 07:03:05;;;;;;;33.78;19.48;;;14.00;60.90;;;;;;5046880;28;20416;-79
2021/05/18 07:05:39;;;;;;;31.27;18.77;;;14.10;59.50;;;;;;5051802;28;20926;-81
2021/05/18 07:10:31;;;;;;;35.53;17.90;;;14.20;58.60;;;;;;5057633;28;20389;-80
2021/05/18 07:12:57;;;;;;;31.48;19.23;;;14.20;58.30;;;;;;5055022;28;20462;-82
2021/05/18 07:15:26;;;;;;;32.67;19.27;;;14.20;58.10;;;;;;5035646;28;20402;-82
2021/05/18 07:17:52;;;;;;;29.95;18.50;;;14.40;59.90;;;;;;5034365;28;20415;-81
2021/05/18 07:20:18;;;;;;;32.90;19.30;;;14.50;57.10;;;;;;5038855;28;20407;-84
2021/05/18 07:22:44;;;;;;;28.17;17.35;;;14.60;57.20;;;;;;5041470;28;20430;-79
2021/05/18 07:25:09;;;;;;;30.85;18.05;;;14.90;57.00;;;;;;5041485;28;20439;-81
2021/05/18 07:27:35;;;;;;;28.10;17.58;;;15.00;52.00;;;;;;5035324;28;20540;-77
2021/05/18 07:30:01;;;;;;;28.60;17.47;;;15.20;51.00;;;;;;5034504;28;20387;-78
2021/05/18 07:32:26;;;;;;;32.87;19.10;;;15.10;48.40;;;;;;5038062;28;20414;-83
2021/05/18 07:34:54;;;;;;;35.10;20.07;;;14.90;48.50;;;;;;5042643;28;20406;-82
2021/05/18 07:37:23;;;;;;;31.67;20.10;;;14.70;49.10;;;;;;5055784;28;20450;-83
2021/05/18 07:39:49;;;;;;;33.15;19.80;;;14.60;52.00;;;;;;5052779;28;20419;-84
2021/05/18 07:42:16;;;;;;;33.38;20.80;;;14.30;50.30;;;;;;5045011;28;20478;-83
2021/05/18 07:44:42;;;;;;;29.10;20.65;;;14.20;52.90;;;;;;5040996;28;20406;-82
2021/05/18 07:47:08;;;;;;;29.77;19.85;;;14.20;54.10;;;;;;5055842;28;20412;-82
2021/05/18 07:49:40;;;;;;;31.40;19.70;;;14.30;58.30;;;;;;5055605;28;20394;-79
2021/05/18 08:00:33;;;;;;;33.13;21.83;;;14.30;55.50;;;;;;5057466;28;20418;-79
2021/05/18 08:05:31;;;;;;;33.77;20.57;;;14.60;52.50;;;;;;5076899;28;20478;-79
2021/05/18 08:07:56;;;;;;;28.33;19.65;;;14.90;50.60;;;;;;5076120;28;20394;-79
2021/05/18 08:10:32;;;;;;;34.65;20.25;;;15.20;47.60;;;;;;5064707;28;20401;-80
2021/05/18 08:12:58;;;;;;;29.05;20.13;;;15.50;47.70;;;;;;5057214;28;20458;-81
2021/05/18 08:18:12;;;;;;;31.50;20.02;;;15.80;44.80;;;;;;5075763;28;20393;-81
2021/05/18 09:37:20;;;;;;;27.75;17.60;;;16.10;33.30;;;;;;5046111;28;20903;-82
2021/05/18 10:35:53;;;;;;;10.85;9.38;;;17.20;23.20;;;;;;5039921;28;20533;-76
2021/05/18 10:38:24;;;;;;;9.23;8.32;;;17.20;21.50;;;;;;5036279;28;20387;-77
2021/05/18 10:41:05;;;;;;;10.73;8.50;;;17.40;22.20;;;;;;5034644;28;20409;-77
2021/05/18 10:43:32;;;;;;;10.88;8.05;;;17.40;21.70;;;;;;5035663;28;20410;-77
2021/05/18 10:46:01;;;;;;;10.68;8.90;;;17.00;21.60;;;;;;5035759;28;20384;-77
2021/05/18 10:48:27;;;;;;;13.60;10.05;;;17.00;23.10;;;;;;5038165;28;20460;-78
2021/05/18 10:50:53;;;;;;;15.10;10.13;;;17.00;22.50;;;;;;5037269;28;20513;-77
2021/05/18 10:53:24;;;;;;;18.73;11.20;;;17.40;20.50;;;;;;5033419;28;20615;-75
2021/05/18 10:56:07;;;;;;;15.27;12.02;;;17.60;21.80;;;;;;5034319;28;20387;-77
2021/05/18 10:58:33;;;;;;;17.55;10.95;;;17.60;20.80;;;;;;5035040;28;20387;-80
2021/05/18 11:01:04;;;;;;;14.82;10.43;;;17.20;21.30;;;;;;5044328;28;20420;-79
2021/05/18 11:03:33;;;;;;;16.98;11.57;;;16.90;21.40;;;;;;5040414;28;20414;-80
2021/05/18 11:06:06;;;;;;;13.73;10.95;;;16.90;22.20;;;;;;5033302;28;20387;-81
2021/05/18 11:08:33;;;;;;;17.77;11.68;;;17.50;18.80;;;;;;5036242;28;20383;-79
2021/05/18 11:10:59;;;;;;;14.13;12.00;;;17.70;20.00;;;;;;5050933;28;20393;-80
2021/05/18 11:13:25;;;;;;;16.02;11.18;;;17.90;18.50;;;;;;5039953;28;20387;-81
2021/05/18 11:15:51;;;;;;;16.10;11.67;;;18.00;18.10;;;;;;5035755;28;20383;-80
2021/05/18 11:18:16;;;;;;;12.77;10.10;;;18.30;17.60;;;;;;5033757;28;20449;-81
2021/05/18 11:25:56;;;;;;;13.80;10.68;;;18.10;16.30;;;;;;5036514;28;20418;-79
2021/05/18 11:28:28;;;;;;;15.35;11.80;;;18.10;16.80;;;;;;5035625;28;20399;-80
2021/05/18 11:31:12;;;;;;;14.30;10.80;;;18.50;16.60;;;;;;5034970;28;20526;-79
2021/05/18 11:33:47;;;;;;;16.17;11.10;;;18.50;15.50;;;;;;5039154;28;20409;-78
2021/05/18 11:36:19;;;;;;;13.52;11.75;;;17.70;17.40;;;;;;5038319;28;20390;-80
2021/05/18 11:38:53;;;;;;;14.00;9.52;;;17.90;16.50;;;;;;5045477;28;20383;-81
2021/05/18 11:41:28;;;;;;;10.70;7.88;;;18.20;15.30;;;;;;5046369;28;20457;-81
2021/05/18 11:43:55;;;;;;;11.93;10.50;;;17.60;15.20;;;;;;5044829;28;20418;-80
2021/05/18 11:46:22;;;;;;;11.50;9.30;;;17.70;15.70;;;;;;5041903;28;20409;-81
2021/05/18 11:49:01;;;;;;;13.07;9.77;;;18.00;16.10;;;;;;5042316;28;20399;-80
2021/05/18 11:51:34;;;;;;;15.50;10.60;;;18.50;14.90;;;;;;5039350;28;20387;-81
2021/05/18 11:54:04;;;;;;;16.98;11.70;;;18.60;18.60;;;;;;5036944;28;20507;-81
2021/05/18 11:56:32;;;;;;;15.50;11.47;;;18.60;20.70;;;;;;5052742;28;20413;-80
2021/05/18 11:59:14;;;;;;;19.25;11.90;;;18.60;18.60;;;;;;5057727;28;20507;-82
2021/05/18 12:02:00;;;;;;;16.07;12.10;;;18.80;19.00;;;;;;5060428;28;20835;-82
2021/05/18 12:04:27;;;;;;;14.13;11.10;;;18.60;19.40;;;;;;5061182;28;20386;-81
2021/05/18 12:07:04;;;;;;;15.80;12.33;;;18.90;19.00;;;;;;5063531;28;20378;-80
2021/05/18 12:09:34;;;;;;;21.38;12.52;;;19.10;19.20;;;;;;5044352;28;20426;-82
2021/05/18 12:12:11;;;;;;;17.05;11.00;;;19.40;18.50;;;;;;5046271;28;20443;-82
2021/05/18 12:14:42;;;;;;;14.10;11.82;;;19.80;16.80;;;;;;5065790;28;20445;-80
2021/05/18 12:17:08;;;;;;;20.08;12.75;;;19.70;16.30;;;;;;5072422;28;20401;-80
2021/05/18 12:19:37;;;;;;;14.27;11.80;;;19.10;15.90;;;;;;5070447;28;20386;-82
2021/05/18 12:22:04;;;;;;;18.67;12.02;;;18.30;17.20;;;;;;5069272;28;20381;-81
2021/05/18 12:24:29;;;;;;;9.77;6.43;;;17.90;19.40;;;;;;5061604;28;20397;-83
2021/05/18 12:27:00;;;;;;;8.87;6.63;;;15.80;21.60;;;;;;5058239;28;20160;-83
2021/05/18 12:29:29;;;;;;;;;;;14.90;25.60;;;;;;5058127;28;20452;-83
2021/05/18 12:31:55;;;;;;;12.27;6.57;;;13.80;40.50;;;;;;5058213;28;20185;-80
2021/05/18 12:34:30;;;;;;;12.57;6.97;;;11.70;99.90;;;;;;5055121;28;20462;-78
2021/05/18 12:36:56;;;;;;;16.60;10.40;;;11.00;99.90;;;;;;5047226;28;20458;-79
2021/05/18 12:39:22;;;;;;;20.50;11.03;;;10.90;99.90;;;;;;5046451;28;20417;-78
2021/05/18 12:41:56;;;;;;;17.53;9.17;;;10.80;99.90;;;;;;5049409;28;20440;-78
2021/05/18 12:44:24;;;;;;;12.27;9.53;;;10.70;99.90;;;;;;5045923;28;20504;-78
2021/05/18 12:46:53;;;;;;;13.40;9.10;;;10.90;99.90;;;;;;5054430;28;20420;-78
2021/05/18 12:49:27;;;;;;;11.37;9.13;;;11.30;99.90;;;;;;5051752;28;20439;-78
2021/05/18 12:52:19;;;;;;;31.27;16.63;;;11.60;99.90;;;;;;5048075;28;20412;-76
2021/05/18 12:54:49;;;;;;;50.43;26.47;;;12.50;99.90;;;;;;5038140;28;20458;-76
2021/05/18 12:57:25;;;;;;;11.23;8.33;;;13.20;99.90;;;;;;5037546;28;20421;-76
2021/05/18 12:59:59;;;;;;;13.83;8.97;;;13.60;82.70;;;;;;5034568;28;20535;-77
2021/05/18 13:02:39;;;;;;;16.23;8.27;;;14.00;73.40;;;;;;5036170;28;20957;-76
2021/05/18 13:05:07;;;;;;;9.60;8.60;;;14.40;78.00;;;;;;5038175;28;20399;-77
2021/05/18 13:07:33;;;;;;;9.97;8.97;;;14.60;67.60;;;;;;5037967;28;20457;-78
2021/05/18 13:10:06;;;;;;;14.77;8.97;;;15.00;64.70;;;;;;5039688;28;20418;-78
2021/05/18 13:12:32;;;;;;;7.47;6.70;;;15.00;58.00;;;;;;5045475;28;20164;-78
2021/05/18 13:14:59;;;;;;;11.03;6.40;;;14.60;47.20;;;;;;5042635;28;20914;-77
2021/05/18 13:17:26;;;;;;;10.10;5.50;;;14.40;42.60;;;;;;5036795;28;20188;-77
2021/05/18 13:20:12;;;;;;;9.17;7.50;;;14.40;41.80;;;;;;5034532;28;20436;-78
2021/05/18 13:22:41;;;;;;;5.90;4.93;;;14.60;50.00;;;;;;5036533;28;20465;-77
2021/05/18 13:27:57;;;;;;;12.23;6.30;;;15.00;45.00;;;;;;5041844;28;20489;-77
2021/05/18 13:30:25;;;;;;;12.80;6.50;;;15.90;36.90;;;;;;5042704;28;20760;-76
2021/05/18 13:32:51;;;;;;;7.23;5.83;;;16.40;36.40;;;;;;5037063;28;20509;-76
2021/05/18 13:35:18;;;;;;;6.90;5.63;;;16.90;32.20;;;;;;5038042;28;20439;-77
2021/05/18 13:37:44;;;;;;;5.80;5.30;;;16.70;28.70;;;;;;5041604;28;20253;-75
2021/05/18 13:40:12;;;;;;;6.87;6.17;;;16.00;31.10;;;;;;5048934;28;20422;-76
2021/05/18 13:42:38;;;;;;;7.93;5.87;;;15.70;34.80;;;;;;5043274;28;20529;-78
2021/05/18 13:45:05;;;;;;;9.33;6.40;;;15.40;33.40;;;;;;5039782;28;20422;-75
2021/05/18 13:47:30;;;;;;;8.87;7.20;;;15.00;34.70;;;;;;5050970;28;20520;-78
2021/05/18 13:49:56;;;;;;;9.20;6.53;;;14.80;35.80;;;;;;5068372;28;20406;-77
2021/05/18 13:52:22;;;;;;;22.60;6.07;;;14.90;37.50;;;;;;5059022;28;20222;-77
2021/05/18 13:54:49;;;;;;;10.37;4.80;;;15.00;36.30;;;;;;5054455;28;20175;-77
2021/05/18 13:57:14;;;;;;;11.43;5.40;;;15.00;32.50;;;;;;5054850;28;20179;-76
2021/05/18 13:59:40;;;;;;;5.10;4.60;;;15.10;34.50;;;;;;5054961;28;20482;-77
2021/05/18 14:02:06;;;;;;;6.97;5.20;;;15.40;32.90;;;;;;5053551;28;20179;-78
2021/05/18 14:04:32;;;;;;;5.40;4.90;;;16.00;29.80;;;;;;5055101;28;20197;-77
2021/05/18 14:09:53;;;;;;;8.87;6.83;;;17.00;26.60;;;;;;5054170;28;20626;-77
2021/05/18 14:12:19;;;;;;;6.23;5.63;;;17.70;26.40;;;;;;5054741;28;20416;-79
2021/05/18 14:14:44;;;;;;;12.33;5.80;;;17.70;22.30;;;;;;5040270;28;20184;-76
2021/05/18 14:17:10;;;;;;;9.37;6.00;;;17.20;22.20;;;;;;5038107;28;20217;-78
2021/05/18 14:19:35;;;;;;;9.50;6.83;;;17.00;22.20;;;;;;5037658;28;20195;-78
2021/05/18 14:22:01;;;;;;;6.70;5.80;;;17.00;22.90;;;;;;5037357;28;20605;-78
2021/05/18 14:24:38;;;;;;;7.70;5.67;;;17.00;22.10;;;;;;5037231;28;20182;-77
2021/05/18 14:27:08;;;;;;;10.83;7.80;;;17.10;21.70;;;;;;5037841;28;20433;-78
2021/05/18 14:29:35;;;;;;;10.40;6.50;;;16.90;20.80;;;;;;5041784;28;20430;-78
2021/05/18 14:32:01;;;;;;;12.50;8.87;;;17.20;20.40;;;;;;5046643;28;20429;-75
2021/05/18 14:34:26;;;;;;;14.60;8.70;;;17.60;19.80;;;;;;5064142;28;20407;-78
2021/05/18 14:36:52;;;;;;;9.27;5.83;;;17.60;18.80;;;;;;5049319;28;20915;-80
2021/05/18 14:39:23;;;;;;;14.43;6.00;;;17.20;18.90;;;;;;5048093;28;20203;-80
2021/05/18 14:44:33;;;;;;;7.93;5.77;;;18.50;18.50;;;;;;5042581;28;20405;-75
2021/05/18 14:47:05;;;;;;;6.47;5.87;;;20.10;16.20;;;;;;5038575;28;20410;-80
2021/05/18 14:55:06;;;;;;;8.53;7.80;;;21.20;12.40;;;;;;5061407;28;20458;-83
2021/05/18 14:57:32;;;;;;;9.40;6.60;;;21.10;11.60;;;;;;5063172;28;20467;-82
2021/05/18 14:59:57;;;;;;;9.03;6.50;;;21.00;11.70;;;;;;5063639;28;20793;-81
2021/05/18 15:02:23;;;;;;;7.00;6.30;;;20.10;12.10;;;;;;5063031;28;20199;-83
2021/05/18 15:04:48;;;;;;;6.83;6.20;;;20.20;12.60;;;;;;5072354;28;20198;-80
2021/05/18 15:07:14;;;;;;;7.90;5.70;;;20.60;11.00;;;;;;5058621;28;20195;-82
2021/05/18 15:09:40;;;;;;;5.37;4.87;;;20.10;11.40;;;;;;5053131;28;20202;-81
2021/05/18 15:12:07;;;;;;;5.73;5.23;;;19.60;11.50;;;;;;5051026;28;20175;-83
2021/05/18 15:14:34;;;;;;;6.40;5.53;;;18.60;13.70;;;;;;5059732;28;20178;-82
2021/05/18 15:17:00;;;;;;;5.60;5.00;;;17.90;13.80;;;;;;5071128;28;21064;-80
2021/05/18 15:19:27;;;;;;;10.27;7.13;;;17.50;15.70;;;;;;5062214;28;20911;-82
2021/05/18 15:21:52;;;;;;;7.70;6.33;;;17.10;17.00;;;;;;5054085;28;20427;-81
2021/05/18 15:24:18;;;;;;;10.40;6.47;;;16.80;17.80;;;;;;5045242;28;20417;-82
2021/05/18 15:26:46;;;;;;;8.00;5.30;;;16.60;18.30;;;;;;5037879;28;20189;-81
2021/05/18 15:29:12;;;;;;;8.87;6.00;;;16.40;19.10;;;;;;5042492;28;20299;-81
2021/05/18 15:31:37;;;;;;;3.73;3.07;;;16.10;19.00;;;;;;5043954;28;20423;-83
2021/05/18 15:34:03;;;;;;;3.47;3.13;;;16.00;16.30;;;;;;5053406;28;20224;-82
2021/05/18 15:36:29;;;;;;;4.87;4.47;;;15.80;18.70;;;;;;5044007;28;20268;-82
2021/05/18 15:38:54;;;;;;;7.17;5.90;;;15.60;21.30;;;;;;5061679;28;20201;-80
2021/05/18 15:41:20;;;;;;;5.47;3.20;;;15.50;26.70;;;;;;5064619;28;20183;-82
2021/05/18 15:43:46;;;;;;;4.30;3.67;;;15.30;20.70;;;;;;5048006;28;20216;-81
2021/05/18 15:46:13;;;;;;;9.07;4.90;;;15.20;23.40;;;;;;5045400;28;20181;-83
2021/05/18 15:48:38;;;;;;;7.90;5.63;;;15.20;27.30;;;;;;5045867;28;20212;-83
2021/05/18 15:51:04;;;;;;;6.47;5.87;;;15.10;30.00;;;;;;5046799;28;20414;-82
2021/05/18 15:53:30;;;;;;;8.63;6.67;;;15.30;27.60;;;;;;5049687;28;20191;-82
2021/05/18 15:55:57;;;;;;;7.50;5.10;;;15.50;29.50;;;;;;5058873;28;20216;-80
2021/05/18 15:58:23;;;;;;;6.93;5.77;;;16.10;25.00;;;;;;5064443;28;20199;-80
2021/05/18 16:00:51;;;;;;;6.57;5.40;;;16.50;23.80;;;;;;5070691;28;20439;-82
2021/05/18 16:03:17;;;;;;;8.10;5.40;;;16.90;24.80;;;;;;5069431;28;20676;-81
2021/05/18 16:05:42;;;;;;;6.90;5.83;;;17.60;22.90;;;;;;5066517;28;20475;-83
2021/05/18 16:11:02;;;;;;;9.23;5.73;;;18.20;19.50;;;;;;5016798;28;20191;-83
2021/05/18 16:13:28;;;;;;;6.33;5.80;;;18.00;18.10;;;;;;5055819;28;20417;-85
2021/05/18 16:15:58;;;;;;;6.10;5.47;;;17.60;19.00;;;;;;5075900;28;20488;-82
2021/05/18 16:18:25;;;;;;;9.23;7.83;;;17.40;19.70;;;;;;5058823;28;20400;-81
2021/05/18 16:20:52;;;;;;;8.43;7.30;;;17.30;21.70;;;;;;5058432;28;20392;-84
2021/05/18 16:23:18;;;;;;;10.00;7.33;;;17.10;20.90;;;;;;5054537;28;20424;-83
2021/05/18 16:25:44;;;;;;;12.60;8.27;;;17.10;22.00;;;;;;5048299;28;20384;-83
2021/05/18 16:28:09;;;;;;;15.70;8.20;;;18.10;21.50;;;;;;5059880;28;20232;-83
2021/05/18 16:30:35;;;;;;;12.93;7.37;;;18.90;16.80;;;;;;5068504;28;20415;-84
2021/05/18 16:33:02;;;;;;;11.93;8.30;;;19.20;16.30;;;;;;5064931;28;20184;-83
2021/05/18 16:35:28;;;;;;;16.13;9.27;;;19.00;16.40;;;;;;5049149;28;20309;-84
2021/05/18 16:37:53;;;;;;;9.63;7.83;;;19.70;16.20;;;;;;5057182;28;20460;-83
2021/05/18 16:40:19;;;;;;;10.73;7.47;;;21.10;13.30;;;;;;5057352;28;20217;-78
2021/05/18 16:42:45;;;;;;;13.70;8.67;;;21.80;11.30;;;;;;5043951;28;20618;-80
2021/05/18 16:45:11;;;;;;;9.20;6.63;;;21.20;11.90;;;;;;5056521;28;20168;-78
2021/05/18 16:47:37;;;;;;;6.37;5.77;;;20.20;15.10;;;;;;5045826;28;20513;-77
2021/05/18 16:50:07;;;;;;;5.13;4.73;;;19.40;17.60;;;;;;5060316;28;20410;-79
2021/05/18 16:52:33;;;;;;;7.07;4.93;;;18.90;18.90;;;;;;5057611;28;20460;-78
2021/05/18 16:54:58;;;;;;;9.27;4.83;;;18.60;20.00;;;;;;5056733;28;20405;-76
2021/05/18 16:57:24;;;;;;;4.47;4.07;;;18.40;19.80;;;;;;5056504;28;20409;-77
2021/05/18 16:59:49;;;;;;;5.30;4.03;;;18.20;20.00;;;;;;5057701;28;20175;-78
2021/05/18 17:02:15;;;;;;;4.60;4.20;;;18.20;20.30;;;;;;5058315;28;20171;-78
2021/05/18 17:04:40;;;;;;;6.03;3.73;;;18.70;20.90;;;;;;5058032;28;20236;-79
2021/05/18 17:07:06;;;;;;;4.10;3.80;;;19.60;18.80;;;;;;5057421;28;20171;-79
2021/05/18 17:09:32;;;;;;;5.30;4.03;;;19.70;17.80;;;;;;5038342;28;20183;-78
2021/05/18 17:11:58;;;;;;;3.93;3.63;;;19.00;17.90;;;;;;5037482;28;20171;-79
2021/05/18 17:14:24;;;;;;;4.63;3.63;;;18.40;18.70;;;;;;5049257;28;20564;-78
2021/05/18 17:16:50;;;;;;;6.20;4.87;;;17.70;20.00;;;;;;5060410;28;20425;-78
2021/05/18 17:19:15;;;;;;;5.10;4.60;;;17.50;21.40;;;;;;5061967;28;20202;-78
2021/05/18 17:21:41;;;;;;;5.40;4.90;;;17.30;22.50;;;;;;5061841;28;20521;-78
2021/05/18 17:24:09;;;;;;;5.90;4.67;;;17.00;23.50;;;;;;5060445;28;20447;-78
2021/05/18 17:26:37;;;;;;;7.83;4.80;;;16.70;25.70;;;;;;5061810;28;20405;-79
2021/05/18 17:29:03;;;;;;;5.40;4.80;;;16.40;26.80;;;;;;5060541;28;20451;-77
2021/05/18 17:31:29;;;;;;;6.30;4.73;;;16.10;27.50;;;;;;5061252;28;20849;-77
2021/05/18 17:33:55;;;;;;;12.63;5.17;;;16.00;28.00;;;;;;5061433;28;20585;-79
2021/05/18 17:36:20;;;;;;;7.00;4.63;;;15.70;30.00;;;;;;5060594;28;20272;-80
2021/05/18 17:38:46;;;;;;;6.43;5.50;;;15.40;31.10;;;;;;5059917;28;20198;-77